Alexandria, SD

5:57 AM CDT on May 19, 2019 (GMT -0500)
Westview Drive | | Change Station
Active Advisory: Flood Warning

Elev 1306 ft 43.73 °N, 98.00 °W | Updated 2 seconds ago

Overcast
Overcast
44.3 °F
Feels Like 39 °F
N
8.9
Wind Variable Wind from NW
Gusts 14.0 mph

Today
High -- | Low -- °F
--% Chance of Precip.
Yesterday
High -- | Low -- °F
Precip. -- in
Pressure 29.78 in
Visibility 3.0 miles
Clouds Scattered Clouds 600 ft
Mostly Cloudy 1000 ft
Overcast 1500 ft
Windchill 39 °F
Dew Point 44 °F
Humidity 100%
Rainfall 0.04 in
Snow Depth Not available.
6:02 AM 8:53 PM
Full, 100% visible
METAR KMHE 191053Z AUTO 35012KT 3SM -RA BR SCT006 BKN010 OVC015 07/06 A2977 RMK AO2 SLP083 P0001 T00670056
Pressure 29.78 in
Visibility 3.0 miles
Clouds Scattered Clouds 600 ft
Mostly Cloudy 1000 ft
Overcast 1500 ft
Windchill 39 °F
Dew Point 44 °F
Humidity 100%
Rainfall 0.04 in
Snow Depth Not available.
6:02 AM 8:53 PM
Full, 100% visible
METAR KMHE 191053Z AUTO 35012KT 3SM -RA BR SCT006 BKN010 OVC015 07/06 A2977 RMK AO2 SLP083 P0001 T00670056

Get Your Daily Forecast Email!

Thanks for signing up!

Be on the lookout for a verification email in your inbox.

You'll start receiving severe weather alerts in your inbox..

×

10-Day Weather Forecast

Almanac

Astronomy

May. 19, 2019 Rise Set
Actual Time
Civil Twilight
Nautical Twilight
Astronomical Twilight
Moon
Length of Visible Light
Length of Day
Tomorrow will be .
, % of the Moon is Illuminated

Today's Extremes

State Highs State Lows

Community

WunderPhotos

Category 6

Welcome to Category 6. This is the collective home for Weather Underground's featured writeups by Dr. Jeff Masters (right), Bob Henson (left), Chris Burt, and other regular contributors.

Nearby

Air Quality

  Air Quality AQ Index Pollutant
Not available.

Snow Depth

Station Depth Elevation

Earthquake Activity

City Distance Mag. Time & Date
Minimum magnitude displayed is 2.5.

Coastal Water Temperatures

Place Temperature

Stations

Nearby Weather Stations

Station Location Temp. Windchill Dew Point Humidity Wind Precip. Elev Updated Type
                   

Watches & Warnings

Flood Warning
Issued: 10:30 PM CDT May. 18, 2019 – National Weather Service

The Flood Warning continues for
the James River at Mitchell.
* Until further notice.
* At 09pm Saturday the stage was 21.27 feet.
* Moderate flooding is occurring and moderate flooding is forecast.
* Flood stage is 17.00 feet.
* Forecast... the river will crest near 21.4 feet by Sunday may 19
then begin falling.
* At stages near 21.5 feet... shannard Road is flooded.


Lat... Lon 4393 9812 4393 9798 4370 9789 4340 9763
          4338 9777 4351 9797